createdAt,value
2019-01-28T00:00:06.145Z,3.30
2019-01-28T00:03:08.570Z,3.70
2019-01-28T00:06:11.091Z,3.87
2019-01-28T00:09:13.053Z,3.93
2019-01-28T00:12:15.075Z,3.93
2019-01-28T00:15:20.121Z,3.80
2019-01-28T00:18:27.030Z,4.77
2019-01-28T00:21:29.130Z,4.50
2019-01-28T00:24:34.228Z,3.57
2019-01-28T00:27:38.074Z,3.97
2019-01-28T00:30:42.828Z,3.30
2019-01-28T00:33:44.863Z,3.60
2019-01-28T00:36:46.966Z,3.33
2019-01-28T00:39:49.225Z,2.83
2019-01-28T00:42:51.280Z,2.83
2019-01-28T00:45:54.616Z,3.00
2019-01-28T00:48:56.625Z,4.77
2019-01-28T00:51:58.620Z,2.77
2019-01-28T00:55:02.120Z,2.70
2019-01-28T00:58:04.146Z,3.03
2019-01-28T01:01:06.403Z,2.37
2019-01-28T01:04:09.871Z,2.10
2019-01-28T01:07:11.890Z,2.53
2019-01-28T01:10:13.893Z,2.63
2019-01-28T01:13:18.966Z,2.37
2019-01-28T01:16:21.207Z,2.20
2019-01-28T01:19:23.231Z,2.00
2019-01-28T01:22:26.536Z,2.30
2019-01-28T01:25:28.725Z,1.90
2019-01-28T01:28:30.721Z,2.00
2019-01-28T01:31:34.280Z,1.73
2019-01-28T01:34:36.368Z,1.90
2019-01-28T01:37:42.784Z,1.87
2019-01-28T01:40:44.793Z,1.60
2019-01-28T01:43:46.907Z,2.23
2019-01-28T01:46:54.420Z,2.30
2019-01-28T01:49:56.438Z,1.50
2019-01-28T01:52:59.910Z,2.10
2019-01-28T01:56:07.452Z,2.47
2019-01-28T01:59:11.505Z,2.10
2019-01-28T02:02:13.505Z,2.00
2019-01-28T02:05:18.121Z,1.97
2019-01-28T02:08:20.139Z,2.60
2019-01-28T02:11:22.178Z,2.20
2019-01-28T02:14:26.633Z,2.20
2019-01-28T02:17:29.852Z,2.20
2019-01-28T02:20:32.115Z,2.30
2019-01-28T02:23:35.972Z,2.10
2019-01-28T02:26:38.023Z,2.80
2019-01-28T02:29:40.024Z,1.80
2019-01-28T02:32:42.123Z,2.03
2019-01-28T02:35:45.651Z,2.37
2019-01-28T02:38:51.602Z,2.47
2019-01-28T02:41:53.640Z,1.97
2019-01-28T02:44:55.880Z,2.20
2019-01-28T02:48:00.892Z,2.67
2019-01-28T02:51:03.222Z,3.03
2019-01-28T02:54:05.715Z,2.50
2019-01-28T02:57:12.308Z,2.30
2019-01-28T03:03:47.384Z,2.63
2019-01-28T03:06:49.388Z,2.40
2019-01-28T03:09:51.421Z,2.17
2019-01-28T03:12:53.683Z,1.67
2019-01-28T03:15:55.715Z,2.30
2019-01-28T03:19:01.203Z,1.93
2019-01-28T03:22:05.600Z,1.80
2019-01-28T03:25:09.722Z,1.70
2019-01-28T03:28:11.722Z,2.33
2019-01-28T03:31:13.614Z,2.10
2019-01-28T03:34:15.646Z,3.17
2019-01-28T03:37:17.663Z,2.83
2019-01-28T03:40:19.705Z,2.57
2019-01-28T03:43:22.823Z,2.87
2019-01-28T03:46:24.828Z,2.77
2019-01-28T03:49:26.823Z,3.30
2019-01-28T03:52:29.014Z,2.53
2019-01-28T03:55:30.986Z,3.00
2019-01-28T03:58:33.038Z,2.93
2019-01-28T04:01:35.116Z,2.87
2019-01-28T04:04:37.377Z,2.90
2019-01-28T04:07:39.357Z,2.67
2019-01-28T04:10:41.364Z,3.20
2019-01-28T04:13:43.634Z,3.13
2019-01-28T04:16:45.639Z,2.60
2019-01-28T04:19:47.650Z,3.00
2019-01-28T04:22:49.802Z,3.13
2019-01-28T04:25:54.298Z,2.90
2019-01-28T04:28:56.317Z,2.80
2019-01-28T04:31:59.670Z,2.50
2019-01-28T04:35:02.444Z,2.93
2019-01-28T04:38:04.553Z,2.60
2019-01-28T04:41:06.579Z,3.37
2019-01-28T04:44:11.288Z,2.00
2019-01-28T04:47:13.332Z,2.90
2019-01-28T04:50:16.921Z,1.90
2019-01-28T04:53:19.420Z,2.63
2019-01-28T04:56:21.411Z,2.27
2019-01-28T04:59:23.447Z,2.63
2019-01-28T05:02:25.491Z,2.60
2019-01-28T05:05:27.499Z,2.53
2019-01-28T05:08:29.520Z,2.80
2019-01-28T05:11:31.748Z,2.60
2019-01-28T05:14:36.910Z,3.23
2019-01-28T05:17:38.963Z,2.30
2019-01-28T05:20:43.687Z,2.20
2019-01-28T05:23:45.859Z,2.60
2019-01-28T05:26:47.880Z,2.60
2019-01-28T05:29:51.020Z,2.70
2019-01-28T05:32:53.291Z,2.50
2019-01-28T05:35:55.354Z,1.77
2019-01-28T05:39:06.326Z,2.20
2019-01-28T05:42:08.365Z,3.20
2019-01-28T05:45:12.349Z,2.40
2019-01-28T05:48:14.360Z,2.40
2019-01-28T05:51:16.367Z,2.60
2019-01-28T05:54:19.666Z,2.67
2019-01-28T05:57:21.661Z,2.67
2019-01-28T06:00:34.352Z,3.03
2019-01-28T06:03:36.392Z,2.70
2019-01-28T06:06:38.409Z,3.57
2019-01-28T06:09:40.388Z,2.90
2019-01-28T06:12:44.932Z,2.17
2019-01-28T06:15:46.942Z,2.67
2019-01-28T06:18:51.211Z,2.03
2019-01-28T06:21:53.287Z,3.47
2019-01-28T06:24:56.707Z,2.93
2019-01-28T06:27:59.813Z,2.57
2019-01-28T06:31:01.811Z,3.00
2019-01-28T06:34:04.007Z,3.13
2019-01-28T06:37:07.557Z,2.70
2019-01-28T06:40:12.099Z,3.23
2019-01-28T06:43:14.250Z,3.53
2019-01-28T06:46:16.284Z,4.57
2019-01-28T06:49:18.293Z,3.23
2019-01-28T06:52:20.508Z,3.80
2019-01-28T06:55:22.486Z,3.73
2019-01-28T06:58:24.582Z,4.80
2019-01-28T07:01:28.415Z,3.10
2019-01-28T07:04:31.927Z,3.77
2019-01-28T07:07:35.192Z,4.03
2019-01-28T07:10:44.460Z,3.57
2019-01-28T07:13:46.710Z,3.33
2019-01-28T07:16:48.722Z,3.10
2019-01-28T07:19:51.104Z,2.97
2019-01-28T07:22:53.276Z,3.33
2019-01-28T07:25:55.300Z,3.70
2019-01-28T07:29:07.884Z,3.33
2019-01-28T07:32:21.236Z,3.30
2019-01-28T07:35:25.329Z,3.10
2019-01-28T07:38:27.470Z,3.50
2019-01-28T07:41:29.501Z,2.83
2019-01-28T07:44:31.849Z,3.13
2019-01-28T07:47:36.685Z,3.27
2019-01-28T07:50:41.061Z,3.43
2019-01-28T07:53:44.063Z,3.43
2019-01-28T07:56:47.079Z,3.93
2019-01-28T07:59:49.198Z,3.60
2019-01-28T08:02:51.206Z,3.90
2019-01-28T08:05:53.408Z,3.70
2019-01-28T08:08:57.486Z,3.30
2019-01-28T08:11:59.510Z,3.13
2019-01-28T08:15:06.207Z,2.93
2019-01-28T08:18:10.855Z,3.13
2019-01-28T08:21:12.095Z,3.33
2019-01-28T08:24:14.126Z,3.90
2019-01-28T08:27:18.189Z,3.10
2019-01-28T08:30:22.739Z,3.27
2019-01-28T08:33:24.940Z,3.07
2019-01-28T08:36:26.966Z,3.27
2019-01-28T08:39:28.964Z,3.10
2019-01-28T08:42:32.057Z,3.93
2019-01-28T08:45:34.066Z,3.03
2019-01-28T08:48:36.065Z,3.37
2019-01-28T08:51:38.113Z,3.70
2019-01-28T08:54:42.272Z,3.03
2019-01-28T08:57:44.295Z,3.30
2019-01-28T09:00:46.322Z,3.30
2019-01-28T09:03:51.137Z,2.57
2019-01-28T09:06:53.128Z,3.23
2019-01-28T09:09:55.173Z,2.63
2019-01-28T09:12:57.445Z,2.60
2019-01-28T09:16:01.273Z,3.30
2019-01-28T09:19:03.293Z,2.40
2019-01-28T09:22:05.273Z,3.30
2019-01-28T09:25:09.796Z,2.53
2019-01-28T09:28:11.875Z,3.13
2019-01-28T09:31:13.865Z,2.90
2019-01-28T09:34:17.277Z,2.43
2019-01-28T09:37:22.503Z,2.10
2019-01-28T09:40:25.642Z,2.33
2019-01-28T09:43:33.043Z,2.13
2019-01-28T09:46:39.644Z,2.07
2019-01-28T09:49:48.651Z,2.43
2019-01-28T09:52:51.123Z,2.63
2019-01-28T09:55:53.135Z,2.40
2019-01-28T09:58:57.542Z,2.37
2019-01-28T10:02:00.097Z,2.57
2019-01-28T10:05:02.210Z,2.70
2019-01-28T10:08:04.515Z,3.37
2019-01-28T10:14:25.478Z,2.87
2019-01-28T10:17:27.491Z,3.50
2019-01-28T10:20:46.041Z,4.00
2019-01-28T10:23:48.676Z,3.87
2019-01-28T10:26:50.825Z,3.67
2019-01-28T10:29:54.071Z,3.77
2019-01-28T10:32:56.397Z,3.53
2019-01-28T10:35:58.422Z,3.97
2019-01-28T10:39:00.429Z,3.47
2019-01-28T10:42:09.669Z,3.80
2019-01-28T10:45:09.330Z,3.97
2019-01-28T10:48:11.561Z,3.90
2019-01-28T10:51:15.738Z,3.50
2019-01-28T10:54:19.585Z,3.60
2019-01-28T10:57:23.733Z,4.00
2019-01-28T11:00:49.134Z,3.63
2019-01-28T11:03:51.208Z,3.70
2019-01-28T11:06:53.193Z,3.47
2019-01-28T11:09:57.602Z,3.33
2019-01-28T11:13:01.870Z,3.10
2019-01-28T11:16:05.000Z,2.97
2019-01-28T11:19:07.097Z,2.83
2019-01-28T11:22:09.207Z,3.37
2019-01-28T11:25:13.704Z,3.47
2019-01-28T11:28:15.829Z,2.63
2019-01-28T11:31:17.960Z,3.53
2019-01-28T11:34:20.474Z,3.63
2019-01-28T11:37:22.460Z,3.50
2019-01-28T11:40:24.486Z,3.70
2019-01-28T11:43:26.898Z,3.33
2019-01-28T11:46:29.090Z,3.63
2019-01-28T11:49:31.420Z,2.80
2019-01-28T11:52:33.619Z,2.63
2019-01-28T11:55:35.630Z,3.67
2019-01-28T11:58:37.776Z,3.83
2019-01-28T12:01:48.804Z,3.80
2019-01-28T12:04:50.876Z,3.10
2019-01-28T12:07:55.910Z,3.23
2019-01-28T12:10:58.049Z,3.17
2019-01-28T12:14:00.054Z,3.03
2019-01-28T12:17:03.492Z,2.87
2019-01-28T12:20:09.257Z,3.40
2019-01-28T12:23:11.361Z,3.13
2019-01-28T12:26:15.506Z,3.40
2019-01-28T12:29:17.818Z,3.10
2019-01-28T12:32:21.292Z,3.40
2019-01-28T12:35:25.948Z,2.70
2019-01-28T12:38:30.022Z,3.73
2019-01-28T12:41:32.081Z,3.13
2019-01-28T12:44:35.485Z,3.90
2019-01-28T12:47:37.498Z,3.10
2019-01-28T12:50:39.539Z,2.90
2019-01-28T12:53:41.747Z,2.80
2019-01-28T12:56:43.845Z,3.00
2019-01-28T12:59:45.781Z,2.97
2019-01-28T13:02:47.824Z,2.63
2019-01-28T13:05:49.859Z,3.17
2019-01-28T13:08:54.003Z,2.70
2019-01-28T13:11:56.168Z,2.50
2019-01-28T13:14:58.464Z,3.00
2019-01-28T13:18:00.591Z,2.97
2019-01-28T13:21:05.533Z,2.63
2019-01-28T13:24:08.760Z,2.60
2019-01-28T13:27:13.854Z,2.57
2019-01-28T13:30:19.708Z,2.77
2019-01-28T13:33:23.677Z,2.70
2019-01-28T13:36:26.175Z,2.20
2019-01-28T13:39:28.227Z,2.20
2019-01-28T13:42:30.554Z,2.73
2019-01-28T13:45:32.593Z,3.20
2019-01-28T13:48:36.501Z,2.43
2019-01-28T13:51:39.830Z,2.57
2019-01-28T13:54:41.925Z,2.00
2019-01-28T13:57:43.963Z,2.53
2019-01-28T14:00:48.755Z,2.90
2019-01-28T14:03:53.558Z,2.53
2019-01-28T14:06:58.129Z,2.87
2019-01-28T14:10:00.225Z,2.93
2019-01-28T14:13:04.114Z,3.20
2019-01-28T14:16:06.124Z,2.73
2019-01-28T14:19:08.377Z,3.20
2019-01-28T14:22:10.753Z,3.50
2019-01-28T14:25:13.762Z,2.60
2019-01-28T14:28:15.834Z,3.27
2019-01-28T14:31:19.677Z,2.60
2019-01-28T14:34:21.973Z,2.30
2019-01-28T14:37:32.158Z,2.20
2019-01-28T14:40:38.260Z,1.90
2019-01-28T14:43:43.227Z,2.57
2019-01-28T14:46:45.387Z,2.23
2019-01-28T14:49:54.412Z,1.77
2019-01-28T14:52:51.475Z,2.07
2019-01-28T14:55:53.516Z,2.37
2019-01-28T14:58:57.326Z,2.33
2019-01-28T15:01:59.314Z,2.10
2019-01-28T15:05:01.432Z,2.20
2019-01-28T15:08:05.046Z,2.20
2019-01-28T15:11:07.100Z,2.17
2019-01-28T15:14:09.441Z,1.93
2019-01-28T15:17:11.514Z,2.60
2019-01-28T15:20:16.447Z,2.87
2019-01-28T15:23:18.713Z,2.33
2019-01-28T15:26:20.748Z,2.10
2019-01-28T15:29:22.894Z,3.00
2019-01-28T15:32:25.360Z,2.00
2019-01-28T15:35:27.364Z,2.30
2019-01-28T15:38:29.419Z,2.23
2019-01-28T15:41:36.084Z,2.33
2019-01-28T15:44:40.723Z,2.20
2019-01-28T15:47:45.549Z,2.17
2019-01-28T15:50:47.622Z,2.50
2019-01-28T15:53:50.228Z,2.10
2019-01-28T15:56:52.271Z,2.23
2019-01-28T15:59:54.274Z,1.87
2019-01-28T16:02:59.675Z,2.00
2019-01-28T16:06:01.734Z,2.30
2019-01-28T16:09:07.205Z,2.30
2019-01-28T16:12:09.774Z,2.90
2019-01-28T16:15:24.487Z,2.17
2019-01-28T16:18:34.268Z,2.33
2019-01-28T16:21:30.730Z,2.63
2019-01-28T16:24:33.095Z,2.50
2019-01-28T16:27:35.256Z,1.90
2019-01-28T16:30:38.640Z,2.30
2019-01-28T16:33:43.264Z,2.37
2019-01-28T16:36:45.377Z,2.30
2019-01-28T16:39:47.427Z,2.17
2019-01-28T16:42:53.571Z,2.27
2019-01-28T16:45:55.631Z,1.30
2019-01-28T16:49:00.057Z,1.20
2019-01-28T16:52:02.148Z,1.30
2019-01-28T16:55:04.727Z,1.67
2019-01-28T16:58:06.785Z,1.23
2019-01-28T17:01:08.868Z,1.40
2019-01-28T17:04:11.210Z,1.50
2019-01-28T17:07:15.192Z,1.57
2019-01-28T17:10:17.240Z,1.87
2019-01-28T17:13:19.286Z,2.00
2019-01-28T17:16:23.855Z,2.10
2019-01-28T17:23:19.370Z,2.70
2019-01-28T17:28:21.456Z,1.97
2019-01-28T17:33:23.595Z,2.10
2019-01-28T17:38:28.689Z,2.97
2019-01-28T17:43:30.904Z,2.60
2019-01-28T17:48:32.976Z,3.10
2019-01-28T17:53:35.304Z,2.80
2019-01-28T17:58:37.984Z,2.90
2019-01-28T18:03:43.532Z,2.90
2019-01-28T18:08:45.555Z,3.00
2019-01-28T18:13:47.607Z,2.80
2019-01-28T18:18:49.667Z,2.90
2019-01-28T18:23:53.283Z,3.07
2019-01-28T18:28:55.367Z,3.83
2019-01-28T18:33:58.818Z,3.00
2019-01-28T18:39:01.002Z,3.80
2019-01-28T18:44:04.128Z,3.57
2019-01-28T18:49:06.177Z,3.63
2019-01-28T18:54:08.256Z,3.53
2019-01-28T18:59:10.269Z,3.83
2019-01-28T19:04:14.644Z,4.43
2019-01-28T19:09:31.388Z,4.60
2019-01-28T19:14:51.769Z,5.17
2019-01-28T19:20:12.004Z,3.30
2019-01-28T19:25:14.137Z,3.53
2019-01-28T19:30:18.075Z,3.87
2019-01-28T19:35:20.170Z,3.20
2019-01-28T19:40:25.285Z,2.93
2019-01-28T19:45:30.265Z,3.23
2019-01-28T19:50:35.053Z,3.47
2019-01-28T19:55:37.584Z,3.63
2019-01-28T20:00:58.388Z,3.43
2019-01-28T20:06:01.565Z,4.50
2019-01-28T20:11:03.592Z,3.03
2019-01-28T20:16:05.574Z,3.13
2019-01-28T20:21:08.987Z,3.40
2019-01-28T20:26:15.699Z,3.33
2019-01-28T20:31:20.042Z,3.63
2019-01-28T20:36:22.410Z,3.57
2019-01-28T20:41:24.441Z,3.70
2019-01-28T20:46:28.754Z,4.27
2019-01-28T20:51:32.419Z,3.83
2019-01-28T20:56:37.534Z,4.70
2019-01-28T21:01:43.653Z,5.13
2019-01-28T21:06:47.811Z,4.07
2019-01-28T21:11:53.535Z,4.00
2019-01-28T21:17:00.098Z,4.00
2019-01-28T21:22:03.829Z,3.33
2019-01-28T21:27:05.890Z,4.17
2019-01-28T21:32:08.166Z,3.70
2019-01-28T21:37:16.225Z,3.93
2019-01-28T21:42:18.275Z,7.17
2019-01-28T21:47:20.306Z,3.57
2019-01-28T21:52:22.489Z,3.70
2019-01-28T21:57:24.523Z,4.20
2019-01-28T22:02:26.765Z,4.20
2019-01-28T22:07:31.013Z,4.50
2019-01-28T22:12:38.182Z,4.13
2019-01-28T22:17:40.204Z,3.93
2019-01-28T22:22:42.410Z,4.57
2019-01-28T22:27:46.310Z,3.80
2019-01-28T22:32:48.490Z,3.77
2019-01-28T22:37:52.825Z,3.23
2019-01-28T22:42:54.831Z,3.60
2019-01-28T22:47:56.899Z,3.37
2019-01-28T22:52:59.479Z,3.00
2019-01-28T22:58:01.500Z,3.47
2019-01-28T23:03:03.943Z,2.80
2019-01-28T23:08:05.969Z,3.43
2019-01-28T23:13:08.349Z,3.47
2019-01-28T23:18:10.375Z,3.07
2019-01-28T23:23:12.592Z,2.30
2019-01-28T23:28:14.623Z,2.47
2019-01-28T23:33:21.509Z,3.17
2019-01-28T23:38:23.470Z,2.50
2019-01-28T23:43:26.210Z,2.63
2019-01-28T23:48:33.278Z,3.13
2019-01-28T23:53:35.526Z,2.00
2019-01-28T23:58:37.530Z,2.27
